Time;durP1;ratioP1;P1;durP2;ratioP2;P2;SDS_P1;SDS_P2;PMS_P1;PMS_P2;Temp;Humidity;BMP_temperature;BMP_pressure;BME280_temperature;BME280_humidity;BME280_pressure;Samples;Min_cycle;Max_cycle;Signal;HPM_P1;HPM_P2
2021/05/28 00:00:24;;;;;;;4.22;1.40;;;;;;;19.30;47.60;102275.47;5034717;28;20048;-59
2021/05/28 00:02:52;;;;;;;2.83;1.30;;;;;;;19.28;47.81;102282.63;5035095;28;20033;-59
2021/05/28 00:05:17;;;;;;;4.20;1.67;;;;;;;19.28;47.43;102269.41;5034179;28;20029;-59
2021/05/28 00:07:43;;;;;;;3.00;1.20;;;;;;;19.26;47.27;102277.41;5034902;28;20036;-59
2021/05/28 00:10:09;;;;;;;4.90;1.50;;;;;;;19.27;47.41;102283.56;5034668;28;20037;-58
2021/05/28 00:12:34;;;;;;;2.22;1.10;;;;;;;19.25;47.46;102270.47;5033019;28;20025;-58
2021/05/28 00:14:59;;;;;;;3.03;1.30;;;;;;;19.24;47.52;102274.03;5034243;28;20092;-59
2021/05/28 00:17:25;;;;;;;3.78;1.38;;;;;;;19.23;47.32;102279.41;5034512;28;20080;-59
2021/05/28 00:19:50;;;;;;;3.08;1.30;;;;;;;19.23;47.66;102288.19;5034112;28;20083;-59
2021/05/28 00:22:15;;;;;;;2.55;1.25;;;;;;;19.22;47.30;102289.16;5034122;28;20029;-59
2021/05/28 00:24:41;;;;;;;2.88;1.20;;;;;;;19.19;47.24;102282.25;5034350;28;20057;-60
2021/05/28 00:27:06;;;;;;;3.40;1.50;;;;;;;19.20;47.21;102283.09;5033493;28;20112;-60
2021/05/28 00:29:32;;;;;;;3.85;1.48;;;;;;;19.16;47.33;102285.09;5034083;28;20061;-59
2021/05/28 00:31:57;;;;;;;3.80;1.40;;;;;;;19.17;47.16;102283.31;5034411;28;20037;-60
2021/05/28 00:34:22;;;;;;;3.92;1.70;;;;;;;19.16;46.85;102277.16;5033349;28;20126;-59
2021/05/28 00:36:47;;;;;;;3.33;1.30;;;;;;;19.15;47.14;102278.13;5034470;28;20044;-59
2021/05/28 00:39:13;;;;;;;2.28;1.10;;;;;;;19.15;47.19;102285.19;5033292;28;20048;-59
2021/05/28 00:41:38;;;;;;;3.30;1.40;;;;;;;19.14;47.12;102283.50;5034101;28;20061;-59
2021/05/28 00:44:04;;;;;;;3.78;1.48;;;;;;;19.14;46.98;102283.50;5033592;28;20275;-59
2021/05/28 00:46:32;;;;;;;3.45;1.50;;;;;;;19.12;46.93;102280.97;5033292;28;20034;-60
2021/05/28 00:48:57;;;;;;;3.20;1.40;;;;;;;19.07;46.99;102268.97;5034242;28;20030;-59
2021/05/28 00:51:23;;;;;;;4.00;1.48;;;;;;;19.10;47.06;102277.53;5033825;28;20036;-59
2021/05/28 00:53:50;;;;;;;3.55;1.50;;;;;;;19.08;46.90;102268.88;5033276;28;20052;-59
2021/05/28 00:56:16;;;;;;;3.72;1.40;;;;;;;19.06;47.13;102273.41;5033663;28;20071;-59
2021/05/28 00:58:41;;;;;;;3.67;1.50;;;;;;;19.08;46.95;102279.44;5033810;28;20036;-59
2021/05/28 01:01:07;;;;;;;2.38;1.10;;;;;;;19.08;47.04;102281.25;5032663;28;20120;-60
2021/05/28 01:03:33;;;;;;;4.43;1.27;;;;;;;19.06;46.91;102283.97;5033847;28;20408;-59
2021/05/28 01:05:58;;;;;;;2.80;1.33;;;;;;;19.06;46.90;102283.13;5033799;28;20029;-59
2021/05/28 01:08:23;;;;;;;6.07;1.40;;;;;;;19.05;46.82;102284.91;5032774;28;20473;-58
2021/05/28 01:10:48;;;;;;;3.40;1.42;;;;;;;19.05;46.88;102284.06;5033768;28;20401;-59
2021/05/28 01:13:15;;;;;;;3.17;1.35;;;;;;;19.03;46.57;102281.53;5033426;28;20028;-59
2021/05/28 01:15:41;;;;;;;4.03;1.58;;;;;;;19.01;46.23;102286.91;5032725;28;20508;-59
2021/05/28 01:18:07;;;;;;;2.30;1.17;;;;;;;19.02;46.73;102285.09;5033420;28;20075;-60
2021/05/28 01:20:34;;;;;;;2.83;1.40;;;;;;;18.98;46.72;102280.97;5033713;28;20018;-60
2021/05/28 01:23:01;;;;;;;2.78;1.23;;;;;;;18.99;46.53;102288.81;5032631;28;20496;-58
2021/05/28 01:25:27;;;;;;;2.78;1.30;;;;;;;18.99;46.66;102290.59;5032965;28;20029;-59
2021/05/28 01:27:58;;;;;;;2.22;1.10;;;;;;;18.98;46.18;102291.53;5033269;28;20457;-58
2021/05/28 01:30:26;;;;;;;3.67;1.45;;;;;;;18.96;46.42;102288.13;5031925;28;20461;-59
2021/05/28 01:32:52;;;;;;;3.25;1.55;;;;;;;18.96;46.39;102285.50;5033014;28;20535;-58
2021/05/28 01:35:18;;;;;;;2.85;1.20;;;;;;;18.95;46.25;102275.88;5032776;28;20025;-59
2021/05/28 01:37:44;;;;;;;2.92;1.40;;;;;;;18.93;46.51;102283.91;5032321;28;20022;-59
2021/05/28 01:40:10;;;;;;;2.30;1.13;;;;;;;18.94;46.24;102284.75;5032578;28;20025;-59
2021/05/28 01:42:36;;;;;;;3.65;1.52;;;;;;;18.93;46.08;102283.91;5032080;28;20287;-59
2021/05/28 01:45:03;;;;;;;2.45;1.10;;;;;;;18.93;46.42;102280.38;5032773;28;20104;-59
2021/05/28 01:47:29;;;;;;;3.13;1.30;;;;;;;18.91;46.03;102282.28;5032967;28;20028;-60
2021/05/28 01:49:55;;;;;;;2.65;1.20;;;;;;;18.92;46.20;102284.00;5032043;28;20029;-59
2021/05/28 01:52:24;;;;;;;3.83;1.50;;;;;;;18.91;46.33;102282.28;5032454;28;20521;-59
2021/05/28 01:54:50;;;;;;;3.15;1.30;;;;;;;18.89;45.92;102285.03;5032683;28;20040;-59
2021/05/28 01:57:15;;;;;;;2.60;1.13;;;;;;;18.89;46.47;102278.91;5031660;28;20026;-59
2021/05/28 01:59:45;;;;;;;4.15;1.35;;;;;;;18.87;45.97;102284.28;5032820;28;20043;-59
2021/05/28 02:02:12;;;;;;;3.40;1.35;;;;;;;18.87;46.20;102283.41;5032556;28;20420;-59
2021/05/28 02:04:37;;;;;;;3.22;1.20;;;;;;;18.81;45.81;102274.91;5031779;28;20022;-59
2021/05/28 02:07:03;;;;;;;2.40;1.15;;;;;;;18.80;45.84;102278.50;5032290;28;20032;-59
2021/05/28 02:09:30;;;;;;;3.22;1.52;;;;;;;18.78;46.10;102268.97;5032305;28;20469;-58
2021/05/28 02:11:57;;;;;;;2.38;1.17;;;;;;;18.84;46.07;102287.09;5031665;28;20068;-59
2021/05/28 02:14:24;;;;;;;3.25;1.30;;;;;;;18.82;45.92;102279.25;5031914;28;20026;-58
2021/05/28 02:16:49;;;;;;;2.75;1.33;;;;;;;18.83;45.68;102288.00;5032204;28;20091;-59
2021/05/28 02:19:15;;;;;;;2.50;1.20;;;;;;;18.82;46.06;102289.81;5031244;28;20030;-58
2021/05/28 02:21:40;;;;;;;3.13;1.30;;;;;;;18.81;45.81;102288.09;5032179;28;20033;-59
2021/05/28 02:24:11;;;;;;;3.83;1.38;;;;;;;18.80;45.80;102285.56;5032123;28;20022;-59
2021/05/28 02:26:36;;;;;;;3.55;1.35;;;;;;;18.79;45.67;102295.28;5031661;28;20373;-59
2021/05/28 02:29:01;;;;;;;3.20;1.40;;;;;;;18.79;45.83;102291.81;5032009;28;20029;-59
2021/05/28 02:31:27;;;;;;;2.60;1.20;;;;;;;18.78;45.63;102298.00;5032032;28;20745;-59
2021/05/28 02:33:55;;;;;;;2.70;1.15;;;;;;;18.76;45.82;102291.97;5031501;28;20376;-59
2021/05/28 02:36:20;;;;;;;2.70;1.15;;;;;;;18.76;45.45;102295.47;5031124;28;20021;-58
2021/05/28 02:38:45;;;;;;;4.10;1.30;;;;;;;18.76;45.59;102295.47;5031709;28;20087;-58
2021/05/28 02:41:10;;;;;;;2.70;1.30;;;;;;;18.72;45.47;102293.94;5031541;28;20385;-59
2021/05/28 02:43:39;;;;;;;2.40;1.20;;;;;;;18.75;45.58;102303.47;5032143;28;20285;-59
2021/05/28 02:46:04;;;;;;;2.65;1.40;;;;;;;18.74;45.62;102307.91;5030807;28;20462;-59
2021/05/28 02:48:29;;;;;;;3.27;1.40;;;;;;;18.74;45.72;102312.34;5031792;28;20048;-59
2021/05/28 02:50:54;;;;;;;3.17;1.30;;;;;;;18.73;45.67;102313.28;5031927;28;20282;-59
2021/05/28 02:53:20;;;;;;;3.15;1.40;;;;;;;18.73;45.85;102313.28;5030763;28;20279;-58
2021/05/28 02:55:45;;;;;;;3.50;1.17;;;;;;;18.70;45.62;102314.31;5031910;28;20033;-59
2021/05/28 02:58:10;;;;;;;3.03;1.10;;;;;;;18.71;45.72;102312.50;5031689;28;20113;-59
2021/05/28 03:00:36;;;;;;;2.95;1.10;;;;;;;18.70;45.60;102318.75;5031204;28;20083;-58
2021/05/28 03:03:02;;;;;;;2.80;1.17;;;;;;;18.70;45.46;102329.31;5031418;28;20029;-59
2021/05/28 03:05:27;;;;;;;2.83;1.35;;;;;;;18.70;45.62;102332.81;5031721;28;20081;-60
2021/05/28 03:07:52;;;;;;;2.92;1.77;;;;;;;18.67;45.62;102333.84;5030817;28;20022;-57
2021/05/28 03:10:18;;;;;;;3.22;1.10;;;;;;;18.68;45.68;102345.25;5031403;28;20028;-59
2021/05/28 03:12:43;;;;;;;3.53;1.27;;;;;;;18.66;45.63;102339.22;5031033;28;20084;-59
2021/05/28 03:15:10;;;;;;;3.80;1.52;;;;;;;18.65;45.43;102335.72;5029544;28;20034;-59
2021/05/28 03:17:36;;;;;;;2.95;1.30;;;;;;;18.65;45.01;102329.59;5031525;28;20025;-59
2021/05/28 03:20:05;;;;;;;3.20;1.27;;;;;;;18.65;45.29;102334.88;5030889;28;20030;-58
2021/05/28 03:22:31;;;;;;;2.65;1.10;;;;;;;18.64;45.51;102338.44;5030109;28;20096;-60
2021/05/28 03:25:04;;;;;;;3.05;1.10;;;;;;;18.63;45.10;102336.78;5031316;28;20029;-58
2021/05/28 03:27:30;;;;;;;3.15;1.70;;;;;;;18.61;45.46;102339.50;5031031;28;20033;-59
2021/05/28 03:29:55;;;;;;;2.45;1.15;;;;;;;18.63;45.45;102339.41;5030283;28;20052;-58
2021/05/28 03:32:21;;;;;;;3.25;1.40;;;;;;;18.62;45.45;102348.25;5030935;28;21032;-59
2021/05/28 03:34:46;;;;;;;2.50;1.00;;;;;;;18.59;45.26;102343.16;5031322;28;20036;-60
2021/05/28 03:37:12;;;;;;;2.60;1.10;;;;;;;18.61;45.23;102344.78;5030393;28;20049;-59
2021/05/28 03:39:37;;;;;;;2.80;1.17;;;;;;;18.57;45.20;102332.69;5031462;28;20025;-59
2021/05/28 03:42:03;;;;;;;3.55;1.50;;;;;;;18.60;45.53;102343.06;5030749;28;20033;-59
2021/05/28 03:44:28;;;;;;;2.25;1.17;;;;;;;18.59;45.38;102345.81;5030732;28;20051;-59
2021/05/28 03:46:54;;;;;;;2.85;1.30;;;;;;;18.59;45.44;102348.44;5031352;28;20386;-59
2021/05/28 03:49:19;;;;;;;2.10;1.20;;;;;;;18.58;45.29;102349.38;5033567;28;20021;-59
2021/05/28 03:51:45;;;;;;;2.78;1.40;;;;;;;18.58;45.39;102352.00;5034448;28;20031;-59
2021/05/28 03:54:10;;;;;;;2.65;1.10;;;;;;;18.57;45.33;102352.97;5034500;28;20036;-58
2021/05/28 03:56:35;;;;;;;3.95;1.27;;;;;;;18.56;45.27;102354.75;5034306;28;20061;-59
2021/05/28 03:59:01;;;;;;;3.72;1.40;;;;;;;18.57;45.47;102358.25;5034914;28;20030;-59
2021/05/28 04:01:29;;;;;;;2.92;1.20;;;;;;;18.57;45.19;102356.47;5034413;28;20110;-58
2021/05/28 04:03:55;;;;;;;2.85;1.40;;;;;;;18.57;45.36;102352.97;5033819;28;20026;-58
2021/05/28 04:06:20;;;;;;;3.33;1.35;;;;;;;18.57;45.26;102355.63;5033926;28;20083;-59
2021/05/28 04:08:45;;;;;;;3.28;1.40;;;;;;;18.56;45.15;102356.53;5034151;28;20044;-58
2021/05/28 04:11:11;;;;;;;3.70;1.30;;;;;;;18.56;45.01;102359.19;5033467;28;20025;-60
2021/05/28 04:13:36;;;;;;;3.20;1.58;;;;;;;18.53;45.14;102351.44;5034399;28;20806;-59
2021/05/28 04:16:02;;;;;;;3.30;1.50;;;;;;;18.55;45.39;102366.28;5034132;28;20539;-59
2021/05/28 04:18:27;;;;;;;3.00;1.35;;;;;;;18.53;45.45;102362.84;5033671;28;20022;-58
2021/05/28 04:20:53;;;;;;;2.90;1.35;;;;;;;18.53;45.45;102365.50;5034229;28;20022;-59
2021/05/28 04:23:19;;;;;;;3.03;1.45;;;;;;;18.54;45.67;102369.00;5034346;28;20461;-59
2021/05/28 04:25:46;;;;;;;3.15;1.58;;;;;;;18.54;45.34;102366.34;5033590;28;20358;-59
2021/05/28 04:28:12;;;;;;;3.75;1.40;;;;;;;18.52;45.44;102366.44;5034093;28;20036;-58
2021/05/28 04:30:37;;;;;;;4.30;1.65;;;;;;;18.53;45.15;102372.56;5034157;28;20068;-59
2021/05/28 04:33:03;;;;;;;3.67;1.60;;;;;;;18.53;45.28;102372.56;5032830;28;20069;-59
2021/05/28 04:35:28;;;;;;;3.45;1.40;;;;;;;18.52;45.50;102371.72;5033905;28;20519;-59
2021/05/28 04:37:53;;;;;;;3.67;1.60;;;;;;;18.52;45.33;102370.84;5034173;28;20040;-59
2021/05/28 04:40:19;;;;;;;3.35;1.48;;;;;;;18.51;45.72;102375.28;5033233;28;20025;-59
2021/05/28 04:42:45;;;;;;;2.72;1.30;;;;;;;18.49;45.45;102369.25;5033995;28;20536;-59
2021/05/28 04:45:11;;;;;;;3.97;1.52;;;;;;;18.49;45.79;102377.19;5033773;28;20108;-59
2021/05/28 04:47:36;;;;;;;3.75;1.50;;;;;;;18.51;45.64;102385.00;5033138;28;20024;-59
2021/05/28 04:50:02;;;;;;;4.07;1.65;;;;;;;18.51;45.35;102377.94;5033638;28;20036;-59
2021/05/28 04:52:27;;;;;;;3.55;1.63;;;;;;;18.51;45.73;102382.38;5033021;28;20108;-60
2021/05/28 04:54:52;;;;;;;2.72;1.35;;;;;;;18.49;45.50;102377.19;5033927;28;20052;-59
2021/05/28 04:57:18;;;;;;;3.38;1.40;;;;;;;18.49;45.47;102374.53;5033428;28;20029;-60
2021/05/28 04:59:46;;;;;;;3.00;1.50;;;;;;;18.50;45.70;102386.81;5032382;28;20048;-59
2021/05/28 05:02:11;;;;;;;3.00;1.50;;;;;;;18.49;45.71;102383.31;5033393;28;20025;-59
2021/05/28 05:04:39;;;;;;;3.80;1.65;;;;;;;18.48;45.74;102381.63;5033537;28;20113;-59
2021/05/28 05:07:04;;;;;;;3.58;1.50;;;;;;;18.49;45.51;102387.75;5032700;28;20017;-59
2021/05/28 05:09:30;;;;;;;4.25;1.70;;;;;;;18.49;45.72;102393.03;5033705;28;20120;-58
2021/05/28 05:11:58;;;;;;;3.30;1.67;;;;;;;18.48;45.58;102391.31;5033582;28;20385;-60
2021/05/28 05:14:23;;;;;;;4.72;1.73;;;;;;;18.48;45.98;102397.47;5032211;28;20026;-58
2021/05/28 05:16:49;;;;;;;4.72;1.83;;;;;;;18.48;45.95;102397.47;5033354;28;20029;-59
2021/05/28 05:19:14;;;;;;;4.13;1.85;;;;;;;18.47;45.81;102398.41;5032982;28;20018;-58
2021/05/28 05:21:40;;;;;;;4.35;1.77;;;;;;;18.49;46.01;102406.22;5032679;28;20041;-58
2021/05/28 05:24:07;;;;;;;3.38;1.73;;;;;;;18.50;45.59;102400.00;5033083;28;20045;-59
2021/05/28 05:26:32;;;;;;;4.15;1.60;;;;;;;18.54;45.71;102408.59;5033351;28;20038;-59
2021/05/28 05:28:58;;;;;;;3.15;1.50;;;;;;;18.57;46.02;102405.78;5032543;28;20172;-59
2021/05/28 05:31:23;;;;;;;4.40;1.73;;;;;;;18.63;46.08;102408.06;5032729;28;20106;-58
2021/05/28 05:33:48;;;;;;;3.63;1.53;;;;;;;18.67;45.95;102413.09;5032933;28;20026;-59
2021/05/28 05:36:13;;;;;;;4.18;1.40;;;;;;;18.73;45.80;102419.78;5032320;28;20280;-60
2021/05/28 05:38:39;;;;;;;3.43;1.50;;;;;;;18.77;45.85;102415.16;5033086;28;20338;-60
2021/05/28 05:41:04;;;;;;;4.07;1.48;;;;;;;18.85;45.79;102420.88;5032419;28;20271;-59
2021/05/28 05:43:29;;;;;;;3.53;1.50;;;;;;;18.91;45.60;102424.94;5032231;28;20026;-59
2021/05/28 05:45:54;;;;;;;3.70;1.40;;;;;;;18.95;45.58;102424.66;5032992;28;20285;-59
2021/05/28 05:48:20;;;;;;;2.97;1.60;;;;;;;19.01;45.11;102426.94;5032481;28;20029;-58
2021/05/28 05:50:45;;;;;;;3.45;1.30;;;;;;;19.06;45.38;102431.09;5032282;28;20025;-60
2021/05/28 05:53:10;;;;;;;2.47;1.30;;;;;;;19.09;45.01;102434.41;5032415;28;20037;-59
2021/05/28 05:55:36;;;;;;;4.10;1.58;;;;;;;19.14;45.36;102439.44;5032805;28;20719;-59
2021/05/28 05:58:04;;;;;;;4.32;1.60;;;;;;;19.18;44.93;102438.28;5031908;28;20028;-60
2021/05/28 06:00:29;;;;;;;2.35;1.10;;;;;;;19.21;45.15;102443.38;5032710;28;20029;-58
2021/05/28 06:02:54;;;;;;;2.40;1.17;;;;;;;19.26;44.83;102448.38;5031678;28;20051;-58
2021/05/28 06:05:20;;;;;;;2.53;1.23;;;;;;;19.31;45.05;102443.66;5032467;28;20060;-58
2021/05/28 06:07:46;;;;;;;3.05;1.50;;;;;;;19.35;44.88;102442.53;5032731;28;20631;-58
2021/05/28 06:10:12;;;;;;;3.40;1.42;;;;;;;19.38;44.94;102440.56;5031547;28;20535;-59
2021/05/28 06:12:40;;;;;;;4.65;1.42;;;;;;;19.32;44.77;102426.88;5032581;28;20056;-59
2021/05/28 06:15:06;;;;;;;2.72;1.30;;;;;;;19.48;45.02;102450.56;5032123;28;20045;-59
2021/05/28 06:17:32;;;;;;;6.28;1.60;;;;;;;19.53;44.67;102441.38;5031527;28;20057;-60
2021/05/28 06:19:57;;;;;;;3.42;1.70;;;;;;;19.58;45.06;102449.91;5032525;28;20496;-58
2021/05/28 06:22:22;;;;;;;3.58;1.40;;;;;;;19.65;45.04;102449.53;5032110;28;20059;-59
2021/05/28 06:24:52;;;;;;;3.00;1.60;;;;;;;19.68;44.92;102452.81;5031456;28;20044;-59
2021/05/28 06:27:17;;;;;;;2.83;1.40;;;;;;;19.72;45.08;102449.03;5032130;28;20358;-59
2021/05/28 06:29:43;;;;;;;3.47;1.48;;;;;;;19.78;45.38;102447.84;5032424;28;20056;-59
2021/05/28 06:32:08;;;;;;;3.13;1.50;;;;;;;19.79;45.20;102449.53;5031089;28;20108;-59
2021/05/28 06:34:34;;;;;;;3.13;1.50;;;;;;;19.80;45.14;102453.88;5032029;28;20453;-58
2021/05/28 06:37:04;;;;;;;5.25;1.80;;;;;;;19.80;44.82;102445.94;5031934;28;20063;-58
2021/05/28 06:39:29;;;;;;;3.15;1.52;;;;;;;19.77;45.10;102448.78;5031506;28;20083;-59
2021/05/28 06:41:54;;;;;;;2.83;1.50;;;;;;;19.75;45.37;102454.13;5031840;28;20405;-58
2021/05/28 06:44:25;;;;;;;3.87;1.63;;;;;;;19.75;45.26;102454.13;5031744;28;20056;-59
2021/05/28 06:46:52;;;;;;;3.78;1.60;;;;;;;19.72;45.59;102451.66;5031220;28;20313;-59
2021/05/28 06:49:18;;;;;;;4.30;1.75;;;;;;;19.72;45.46;102458.75;5031751;28;20018;-59
2021/05/28 06:51:43;;;;;;;2.95;1.40;;;;;;;19.70;45.63;102461.50;5032021;28;20036;-60
2021/05/28 06:54:09;;;;;;;3.08;1.40;;;;;;;19.69;45.28;102461.59;5030882;28;20068;-59
2021/05/28 06:56:38;;;;;;;7.35;1.90;;;;;;;19.70;45.27;102465.97;5031822;28;20469;-60
2021/05/28 06:59:05;;;;;;;3.75;1.67;;;;;;;19.71;45.28;102467.63;5030736;28;20037;-59
2021/05/28 07:01:31;;;;;;;3.33;1.70;;;;;;;19.73;45.52;102468.41;5031819;28;20112;-58
2021/05/28 07:04:00;;;;;;;2.95;1.60;;;;;;;19.75;45.21;102471.81;5031597;28;20108;-56
2021/05/28 07:06:25;;;;;;;4.18;1.83;;;;;;;19.72;45.27;102458.75;5030777;28;20389;-57
2021/05/28 07:08:50;;;;;;;3.53;1.88;;;;;;;19.76;45.42;102468.25;5031802;28;20021;-58
2021/05/28 07:11:16;;;;;;;3.35;1.67;;;;;;;19.79;45.91;102467.19;5031769;28;20029;-58
2021/05/28 07:13:41;;;;;;;3.80;2.00;;;;;;;19.80;45.83;102471.53;5031176;28;20028;-58
2021/05/28 07:16:06;;;;;;;5.50;2.50;;;;;;;19.78;45.56;102474.28;5031556;28;20832;-57
2021/05/28 07:18:32;;;;;;;4.70;2.22;;;;;;;19.80;45.40;102476.84;5032618;28;20026;-59
2021/05/28 07:20:57;;;;;;;5.22;2.38;;;;;;;19.78;45.48;102474.28;5031366;28;20021;-59
2021/05/28 07:23:24;;;;;;;4.67;2.60;;;;;;;19.78;45.41;102478.75;5033369;28;20144;-58
2021/05/28 07:25:49;;;;;;;4.35;2.22;;;;;;;19.74;45.80;102481.53;5035687;28;20267;-58
2021/05/28 07:28:15;;;;;;;4.32;2.33;;;;;;;19.75;45.88;102475.28;5034451;28;20098;-59
2021/05/28 07:30:40;;;;;;;5.45;3.10;;;;;;;19.73;45.55;102484.28;5035322;28;20116;-58
2021/05/28 07:33:05;;;;;;;4.95;2.97;;;;;;;19.72;45.90;102487.88;5035263;28;20044;-59
2021/05/28 07:35:31;;;;;;;4.72;2.70;;;;;;;19.68;45.63;102479.28;5034694;28;20381;-59
2021/05/28 07:37:59;;;;;;;5.82;3.00;;;;;;;19.69;45.85;102482.75;5033984;28;20022;-58
2021/05/28 07:40:24;;;;;;;5.55;3.40;;;;;;;19.67;45.56;102489.94;5034787;28;20021;-58
2021/05/28 07:42:50;;;;;;;5.63;3.42;;;;;;;19.66;45.72;102485.59;5034557;28;20037;-58
2021/05/28 07:45:15;;;;;;;6.00;3.53;;;;;;;19.64;45.58;102483.03;5035213;28;20373;-58
2021/05/28 07:47:41;;;;;;;5.82;3.92;;;;;;;19.64;45.65;102483.03;5035358;28;20033;-58
2021/05/28 07:50:08;;;;;;;5.72;3.53;;;;;;;19.64;45.47;102479.56;5034504;28;20030;-58
2021/05/28 07:52:33;;;;;;;5.93;4.22;;;;;;;19.61;45.76;102477.94;5035103;28;20032;-58
2021/05/28 07:54:58;;;;;;;6.53;3.67;;;;;;;19.62;45.46;102476.16;5035120;28;20025;-59
2021/05/28 07:57:24;;;;;;;6.13;4.05;;;;;;;19.61;45.51;102483.22;5034607;28;20057;-59
2021/05/28 07:59:49;;;;;;;6.82;4.30;;;;;;;19.60;45.55;102475.38;5035023;28;20410;-57
2021/05/28 08:02:18;;;;;;;7.25;4.38;;;;;;;19.58;45.67;102479.00;5034964;28;20061;-58
2021/05/28 08:04:43;;;;;;;6.20;4.28;;;;;;;19.57;45.64;102477.28;5034993;28;20037;-58
2021/05/28 08:07:08;;;;;;;7.53;4.47;;;;;;;19.57;45.74;102474.66;5034895;28;20358;-57
2021/05/28 08:09:33;;;;;;;6.32;4.28;;;;;;;19.57;45.54;102465.88;5034217;28;20278;-58
2021/05/28 08:11:59;;;;;;;6.53;4.50;;;;;;;19.57;45.92;102463.22;5034972;28;20040;-58
2021/05/28 08:14:24;;;;;;;6.75;4.72;;;;;;;19.58;46.15;102471.06;5035025;28;20774;-58
2021/05/28 08:16:49;;;;;;;6.95;4.35;;;;;;;19.58;46.22;102463.13;5034359;28;20029;-58
2021/05/28 08:19:14;;;;;;;6.30;4.55;;;;;;;19.60;46.49;102470.97;5034831;28;20027;-58
2021/05/28 08:21:40;;;;;;;6.50;4.40;;;;;;;19.59;46.44;102466.63;5035195;28;20084;-58
2021/05/28 08:24:05;;;;;;;6.38;4.57;;;;;;;19.58;46.44;102462.25;5033901;28;20328;-57
2021/05/28 08:26:30;;;;;;;7.03;4.97;;;;;;;19.57;46.41;102458.78;5034671;28;20026;-56
2021/05/28 08:28:56;;;;;;;6.43;4.38;;;;;;;19.63;47.14;102454.03;5035150;28;20060;-58
2021/05/28 08:31:21;;;;;;;6.97;4.45;;;;;;;19.65;47.07;102454.81;5034230;28;20450;-59
2021/05/28 08:33:46;;;;;;;5.72;4.25;;;;;;;19.67;47.16;102460.84;5034004;28;20105;-57
2021/05/28 08:36:12;;;;;;;6.20;4.47;;;;;;;19.68;47.00;102460.75;5034668;28;20428;-60
2021/05/28 08:38:37;;;;;;;7.35;4.25;;;;;;;19.68;47.39;102449.34;5033579;28;20378;-60
2021/05/28 08:41:03;;;;;;;5.70;4.00;;;;;;;19.71;47.38;102457.06;5035788;28;20060;-58
2021/05/28 08:43:28;;;;;;;6.00;4.40;;;;;;;19.72;47.47;102454.31;5034638;28;20984;-58
2021/05/28 08:45:55;;;;;;;6.97;3.97;;;;;;;19.73;47.12;102460.47;5033811;28;20052;-59
2021/05/28 08:48:20;;;;;;;7.18;3.88;;;;;;;19.72;47.26;102456.97;5034287;28;20034;-58
2021/05/28 08:50:48;;;;;;;6.85;3.92;;;;;;;19.76;47.37;102460.31;5034275;28;20492;-59
2021/05/28 08:53:17;;;;;;;6.35;3.35;;;;;;;19.75;47.33;102464.72;5033381;28;20056;-59
2021/05/28 08:55:44;;;;;;;6.05;3.80;;;;;;;19.76;47.69;102468.25;5034316;28;20026;-60
2021/05/28 08:58:14;;;;;;;6.05;3.65;;;;;;;19.75;47.36;102461.22;5034186;28;20029;-59
2021/05/28 09:00:42;;;;;;;6.20;3.42;;;;;;;19.77;47.37;102463.81;5033344;28;20038;-58
2021/05/28 09:03:28;;;;;;;7.13;3.75;;;;;;;19.74;47.43;102455.09;5034038;28;20051;-59
2021/05/28 09:05:56;;;;;;;4.93;3.13;;;;;;;19.76;47.47;102455.03;5033703;28;20031;-59
2021/05/28 09:08:28;;;;;;;6.45;3.45;;;;;;;19.73;47.60;102453.38;5033673;28;20381;-59
2021/05/28 09:11:10;;;;;;;5.88;3.38;;;;;;;19.74;47.70;102456.88;5035524;28;20022;-57
2021/05/28 09:13:56;;;;;;;5.88;3.10;;;;;;;19.73;47.60;102452.53;5033452;28;20029;-58
2021/05/28 09:16:28;;;;;;;6.05;3.20;;;;;;;19.73;47.63;102452.53;5033265;28;20519;-58
2021/05/28 09:18:56;;;;;;;5.85;3.22;;;;;;;19.73;47.47;102439.31;5033702;28;20560;-59
2021/05/28 09:21:28;;;;;;;5.60;3.17;;;;;;;19.73;47.37;102437.50;5032955;28;20041;-59
2021/05/28 09:23:53;;;;;;;5.65;3.33;;;;;;;19.72;47.47;102441.09;5034021;28;20036;-60
2021/05/28 09:26:24;;;;;;;5.43;2.83;;;;;;;19.72;47.59;102441.09;5033431;28;20021;-59
2021/05/28 09:28:50;;;;;;;5.15;3.00;;;;;;;19.72;47.56;102437.59;5033127;28;20354;-60
2021/05/28 09:31:21;;;;;;;4.47;2.35;;;;;;;19.72;47.23;102442.91;5033075;28;20041;-61
2021/05/28 09:33:51;;;;;;;5.32;3.10;;;;;;;19.73;47.11;102442.78;5032584;28;20380;-59
2021/05/28 09:36:22;;;;;;;6.00;3.75;;;;;;;19.73;47.43;102441.97;5033326;28;20022;-59
2021/05/28 09:38:57;;;;;;;5.53;3.20;;;;;;;19.74;47.07;102441.88;5033430;28;20030;-59
2021/05/28 09:41:40;;;;;;;;;;;;;;;19.75;47.27;102440.06;5032722;28;20033;-60
2021/05/28 09:44:27;;;;;;;6.25;3.03;;;;;;;19.74;47.17;102441.88;5033166;28;19913;-60
2021/05/28 09:47:16;;;;;;;5.93;3.25;;;;;;;19.74;47.18;102430.41;5032942;28;20477;-61
2021/05/28 09:49:52;;;;;;;6.13;3.20;;;;;;;19.74;47.10;102435.69;5032123;28;20121;-60
2021/05/28 09:52:22;;;;;;;5.18;2.58;;;;;;;19.73;47.18;102434.03;5032680;28;20028;-60
2021/05/28 09:55:07;;;;;;;4.63;2.60;;;;;;;19.74;47.51;102430.41;5032853;28;20029;-60
2021/05/28 09:57:34;;;;;;;6.20;3.08;;;;;;;19.73;47.40;102428.72;5032927;28;20025;-59
2021/05/28 10:00:02;;;;;;;4.43;2.88;;;;;;;19.72;47.19;102419.09;5032782;28;20091;-60
2021/05/28 10:04:58;;;;;;;5.72;2.90;;;;;;;19.71;47.44;102409.44;5032950;28;20051;-59
2021/05/28 10:07:25;;;;;;;5.53;2.75;;;;;;;19.69;47.65;102406.94;5032626;28;20075;-59
2021/05/28 10:09:55;;;;;;;4.13;2.47;;;;;;;19.71;47.27;102414.72;5032189;28;20025;-59
2021/05/28 10:12:25;;;;;;;4.82;2.60;;;;;;;19.72;47.34;102411.16;5047612;28;20542;-60
2021/05/28 10:14:52;;;;;;;4.75;2.67;;;;;;;19.72;47.57;102412.00;5032580;28;20560;-59
2021/05/28 10:17:20;;;;;;;6.90;2.53;;;;;;;19.68;47.12;102410.50;5031472;28;20414;-60
2021/05/28 10:19:46;;;;;;;5.28;2.83;;;;;;;19.72;47.21;102408.50;5032780;28;20030;-58
2021/05/28 10:22:17;;;;;;;5.05;2.60;;;;;;;19.73;47.11;102412.88;5032378;28;20035;-58
2021/05/28 10:24:45;;;;;;;4.35;2.58;;;;;;;19.73;47.16;102413.69;5032413;28;20029;-57
2021/05/28 10:27:15;;;;;;;4.85;2.50;;;;;;;19.73;47.45;102411.06;5032142;28;20026;-59
2021/05/28 10:29:41;;;;;;;4.25;2.40;;;;;;;19.72;46.98;102419.09;5032042;28;20025;-60
2021/05/28 10:32:13;;;;;;;5.53;2.55;;;;;;;19.69;47.16;102412.22;5031699;28;20029;-59
2021/05/28 10:35:04;;;;;;;4.80;2.50;;;;;;;19.69;47.37;102406.94;5032354;28;20030;-57
2021/05/28 10:37:30;;;;;;;4.50;2.80;;;;;;;19.69;47.16;102404.28;5031782;28;20033;-58
2021/05/28 10:39:56;;;;;;;3.92;2.30;;;;;;;19.69;47.61;102406.06;5032158;28;20029;-59
2021/05/28 10:42:21;;;;;;;4.00;2.25;;;;;;;19.69;47.34;102411.34;5030702;28;20037;-59
2021/05/28 10:44:47;;;;;;;4.95;2.28;;;;;;;19.67;47.48;102408.78;5031620;28;20346;-58
2021/05/28 10:47:12;;;;;;;4.57;2.22;;;;;;;19.69;47.53;102411.34;5032053;28;20037;-57
2021/05/28 10:49:44;;;;;;;4.22;2.22;;;;;;;19.68;47.39;102409.66;5032215;28;20465;-57
2021/05/28 10:52:29;;;;;;;5.10;2.55;;;;;;;19.67;47.58;102397.38;5031147;28;20121;-58
2021/05/28 10:54:57;;;;;;;4.30;2.40;;;;;;;19.69;47.63;102406.94;5032413;28;20064;-57
2021/05/28 10:57:26;;;;;;;4.85;2.58;;;;;;;19.66;47.63;102399.19;5031247;28;20112;-57
2021/05/28 10:59:54;;;;;;;4.72;2.63;;;;;;;19.69;47.42;102398.13;5031249;28;20480;-58
2021/05/28 11:02:53;;;;;;;6.57;2.60;;;;;;;19.71;47.94;102405.03;5031675;28;20084;-59
2021/05/28 11:05:43;;;;;;;4.95;2.40;;;;;;;19.76;48.03;102404.75;5031277;28;20040;-59
2021/05/28 11:08:37;;;;;;;4.38;2.13;;;;;;;19.75;47.76;102400.38;5031924;28;20500;-59
2021/05/28 11:11:04;;;;;;;4.38;2.33;;;;;;;19.75;47.65;102393.28;5031743;28;20422;-58
2021/05/28 11:13:30;;;;;;;4.45;2.17;;;;;;;19.74;47.69;102398.66;5031575;28;20033;-58
2021/05/28 11:15:59;;;;;;;3.90;1.92;;;;;;;19.77;47.74;102401.16;5032063;28;20354;-59
2021/05/28 11:18:30;;;;;;;5.82;2.35;;;;;;;19.79;47.68;102404.56;5031634;28;20018;-58
2021/05/28 11:21:15;;;;;;;7.30;2.13;;;;;;;19.81;47.47;102388.59;5031144;28;20033;-59
2021/05/28 11:23:43;;;;;;;4.88;1.98;;;;;;;19.82;47.44;102385.88;5031616;28;20033;-58
2021/05/28 11:26:22;;;;;;;5.70;2.10;;;;;;;19.83;47.36;102392.00;5031767;28;20071;-58